VTD754 UWSG-UWSG
Flight info
| Callsign | VTD754 |
|---|---|
| Flight time | 1h 24m |
| Altitude | 2000 |
| Route | RA/020 |
| Aircraft | C172/L-SDGY/C |
Departure
| Time | 2026-04-26 10:28 |
|---|---|
| Airport | Gagarin International Airport (UWSG) |
Arrival
| Time | 2026-04-26 11:52 |
|---|---|
| Airport | Gagarin International Airport (UWSG) |
| Time | Latitude | Longitude | Altitude | Speed | Heading |
|---|---|---|---|---|---|
| 2026-04-26 10:04 | 51.71576 | 46.17236 | 100 ft | 0 kts | 327° |
| 2026-04-26 10:22 | 51.71583 | 46.17229 | 100 ft | 6 kts | 327° |
| 2026-04-26 10:23 | 51.71620 | 46.17240 | 100 ft | 5 kts | 51° |
| 2026-04-26 10:23 | 51.71627 | 46.17303 | 100 ft | 7 kts | 91° |
| 2026-04-26 10:23 | 51.71624 | 46.17385 | 100 ft | 8 kts | 102° |
| 2026-04-26 10:23 | 51.71591 | 46.17428 | 100 ft | 5 kts | 180° |
| 2026-04-26 10:24 | 51.71544 | 46.17424 | 101 ft | 12 kts | 181° |
| 2026-04-26 10:24 | 51.71440 | 46.17418 | 101 ft | 16 kts | 182° |
| 2026-04-26 10:24 | 51.71377 | 46.17413 | 101 ft | 0 kts | 183° |
| 2026-04-26 10:25 | 51.71365 | 46.17413 | 101 ft | 7 kts | 181° |
| 2026-04-26 10:25 | 51.71296 | 46.17409 | 103 ft | 11 kts | 189° |
| 2026-04-26 10:25 | 51.71258 | 46.17344 | 103 ft | 5 kts | 270° |
| 2026-04-26 10:25 | 51.71258 | 46.17343 | 103 ft | 0 kts | 270° |
| 2026-04-26 10:27 | 51.71261 | 46.17124 | 99 ft | 48 kts | 272° |
| 2026-04-26 10:27 | 51.71289 | 46.16411 | 171 ft | 73 kts | 262° |
| 2026-04-26 10:27 | 51.71304 | 46.15554 | 373 ft | 78 kts | 263° |
| 2026-04-26 10:27 | 51.71319 | 46.14665 | 585 ft | 82 kts | 262° |
| 2026-04-26 10:28 | 51.71332 | 46.13726 | 762 ft | 84 kts | 256° |
| 2026-04-26 10:28 | 51.71347 | 46.12766 | 911 ft | 84 kts | 259° |
| 2026-04-26 10:28 | 51.71121 | 46.12078 | 1065 ft | 65 kts | 205° |
| 2026-04-26 10:28 | 51.70653 | 46.12005 | 1155 ft | 68 kts | 181° |
| 2026-04-26 10:29 | 51.70211 | 46.12009 | 1269 ft | 65 kts | 184° |
| 2026-04-26 10:29 | 51.69778 | 46.11990 | 1443 ft | 64 kts | 185° |
| 2026-04-26 10:29 | 51.69292 | 46.11960 | 1464 ft | 74 kts | 185° |
| 2026-04-26 10:29 | 51.68759 | 46.11988 | 1494 ft | 83 kts | 165° |
| 2026-04-26 10:30 | 51.68499 | 46.12929 | 1499 ft | 107 kts | 102° |
| 2026-04-26 10:30 | 51.68485 | 46.14140 | 1495 ft | 110 kts | 102° |
| 2026-04-26 10:30 | 51.68471 | 46.15386 | 1504 ft | 114 kts | 104° |
| 2026-04-26 10:30 | 51.68424 | 46.16699 | 1518 ft | 120 kts | 105° |
| 2026-04-26 10:31 | 51.68382 | 46.18063 | 1448 ft | 120 kts | 104° |
| 2026-04-26 10:31 | 51.68363 | 46.19373 | 1442 ft | 114 kts | 101° |
| 2026-04-26 10:31 | 51.68356 | 46.20618 | 1440 ft | 107 kts | 102° |
| 2026-04-26 10:31 | 51.68326 | 46.21789 | 1437 ft | 102 kts | 100° |
| 2026-04-26 10:32 | 51.68292 | 46.22894 | 1443 ft | 97 kts | 106° |
| 2026-04-26 10:32 | 51.68252 | 46.23950 | 1350 ft | 91 kts | 107° |
| 2026-04-26 10:32 | 51.68229 | 46.24936 | 1379 ft | 85 kts | 109° |
| 2026-04-26 10:32 | 51.68203 | 46.25876 | 1442 ft | 86 kts | 108° |
| 2026-04-26 10:33 | 51.68168 | 46.26896 | 1481 ft | 95 kts | 108° |
| 2026-04-26 10:33 | 51.68447 | 46.27907 | 1478 ft | 112 kts | 32° |
| 2026-04-26 10:33 | 51.69196 | 46.28092 | 1431 ft | 107 kts | 356° |
| 2026-04-26 10:33 | 51.69912 | 46.28124 | 1358 ft | 101 kts | 355° |
| 2026-04-26 10:34 | 51.70597 | 46.28127 | 1271 ft | 97 kts | 354° |
| 2026-04-26 10:34 | 51.71276 | 46.28043 | 1163 ft | 97 kts | 335° |
| 2026-04-26 10:34 | 51.71532 | 46.27271 | 994 ft | 84 kts | 243° |
| 2026-04-26 10:34 | 51.71338 | 46.26376 | 838 ft | 83 kts | 239° |
| 2026-04-26 10:35 | 51.71214 | 46.25471 | 729 ft | 82 kts | 246° |
| 2026-04-26 10:35 | 51.71130 | 46.24579 | 613 ft | 79 kts | 253° |
| 2026-04-26 10:35 | 51.71116 | 46.23735 | 580 ft | 72 kts | 252° |
| 2026-04-26 10:35 | 51.71134 | 46.22923 | 506 ft | 76 kts | 262° |
| 2026-04-26 10:36 | 51.71152 | 46.22079 | 476 ft | 76 kts | 266° |
| 2026-04-26 10:36 | 51.71181 | 46.21199 | 411 ft | 79 kts | 261° |
| 2026-04-26 10:36 | 51.71192 | 46.20338 | 318 ft | 77 kts | 259° |
| 2026-04-26 10:36 | 51.71211 | 46.19478 | 147 ft | 74 kts | 264° |
| 2026-04-26 10:37 | 51.71228 | 46.18753 | 108 ft | 54 kts | 261° |
| 2026-04-26 10:37 | 51.71239 | 46.18122 | 132 ft | 68 kts | 265° |
| 2026-04-26 10:37 | 51.71252 | 46.17285 | 253 ft | 80 kts | 260° |
| 2026-04-26 10:37 | 51.71289 | 46.16345 | 434 ft | 86 kts | 259° |
| 2026-04-26 10:38 | 51.71315 | 46.15398 | 650 ft | 85 kts | 258° |
| 2026-04-26 10:38 | 51.71323 | 46.14399 | 805 ft | 92 kts | 262° |
| 2026-04-26 10:38 | 51.71338 | 46.13361 | 1046 ft | 88 kts | 258° |
| 2026-04-26 10:38 | 51.71002 | 46.12694 | 1215 ft | 79 kts | 198° |
| 2026-04-26 10:39 | 51.70454 | 46.12643 | 1384 ft | 78 kts | 185° |
| 2026-04-26 10:39 | 51.69911 | 46.12624 | 1480 ft | 79 kts | 185° |
| 2026-04-26 10:39 | 51.69335 | 46.12591 | 1514 ft | 86 kts | 185° |
| 2026-04-26 10:39 | 51.68714 | 46.12563 | 1476 ft | 93 kts | 179° |
| 2026-04-26 10:40 | 51.68324 | 46.13407 | 1529 ft | 112 kts | 102° |
| 2026-04-26 10:40 | 51.68332 | 46.14704 | 1530 ft | 120 kts | 101° |
| 2026-04-26 10:40 | 51.68288 | 46.16036 | 1518 ft | 118 kts | 105° |
| 2026-04-26 10:40 | 51.68226 | 46.17357 | 1508 ft | 118 kts | 105° |
| 2026-04-26 10:41 | 51.68177 | 46.18703 | 1437 ft | 118 kts | 100° |
| 2026-04-26 10:41 | 51.68160 | 46.19994 | 1389 ft | 115 kts | 99° |
| 2026-04-26 10:41 | 51.68139 | 46.21269 | 1328 ft | 112 kts | 99° |
| 2026-04-26 10:41 | 51.68106 | 46.22462 | 1255 ft | 102 kts | 102° |
| 2026-04-26 10:42 | 51.68078 | 46.23566 | 1176 ft | 96 kts | 104° |
| 2026-04-26 10:42 | 51.68075 | 46.24266 | 1302 ft | 88 kts | 107° |
| 2026-04-26 10:42 | 51.68028 | 46.25690 | 1454 ft | 104 kts | 105° |
| 2026-04-26 10:42 | 51.67980 | 46.26902 | 1460 ft | 113 kts | 104° |
| 2026-04-26 10:43 | 51.67946 | 46.28186 | 1501 ft | 116 kts | 103° |
| 2026-04-26 10:43 | 51.67912 | 46.29441 | 1500 ft | 107 kts | 103° |
| 2026-04-26 10:43 | 51.68044 | 46.30637 | 1404 ft | 120 kts | 60° |
| 2026-04-26 10:43 | 51.68780 | 46.31188 | 1395 ft | 121 kts | 0° |
| 2026-04-26 10:44 | 51.69607 | 46.31209 | 1346 ft | 118 kts | 359° |
| 2026-04-26 10:44 | 51.70425 | 46.31265 | 1290 ft | 116 kts | 355° |
| 2026-04-26 10:44 | 51.71021 | 46.30633 | 1159 ft | 96 kts | 271° |
| 2026-04-26 10:44 | 51.71077 | 46.29600 | 1097 ft | 88 kts | 257° |
| 2026-04-26 10:45 | 51.71063 | 46.28656 | 1069 ft | 79 kts | 254° |
| 2026-04-26 10:45 | 51.71046 | 46.27698 | 895 ft | 89 kts | 264° |
| 2026-04-26 10:45 | 51.71084 | 46.26724 | 828 ft | 85 kts | 263° |
| 2026-04-26 10:45 | 51.71125 | 46.25783 | 733 ft | 82 kts | 259° |
| 2026-04-26 10:46 | 51.71119 | 46.24886 | 652 ft | 78 kts | 261° |
| 2026-04-26 10:46 | 51.71125 | 46.24029 | 586 ft | 75 kts | 262° |
| 2026-04-26 10:46 | 51.71146 | 46.23183 | 527 ft | 77 kts | 259° |
| 2026-04-26 10:46 | 51.71184 | 46.22320 | 480 ft | 76 kts | 261° |
| 2026-04-26 10:47 | 51.71190 | 46.21463 | 431 ft | 79 kts | 262° |
| 2026-04-26 10:47 | 51.71196 | 46.20578 | 326 ft | 80 kts | 261° |
| 2026-04-26 10:47 | 51.71207 | 46.19678 | 189 ft | 81 kts | 262° |
| 2026-04-26 10:47 | 51.71229 | 46.18834 | 110 ft | 66 kts | 263° |
| 2026-04-26 10:48 | 51.71232 | 46.18188 | 102 ft | 61 kts | 271° |
| 2026-04-26 10:48 | 51.71259 | 46.17371 | 196 ft | 80 kts | 260° |
| 2026-04-26 10:48 | 51.71285 | 46.16435 | 366 ft | 86 kts | 264° |
| 2026-04-26 10:48 | 51.71307 | 46.15438 | 541 ft | 94 kts | 257° |
| 2026-04-26 10:49 | 51.71323 | 46.14344 | 707 ft | 98 kts | 258° |
| 2026-04-26 10:49 | 51.71325 | 46.13224 | 845 ft | 101 kts | 257° |
| 2026-04-26 10:49 | 51.71309 | 46.12487 | 927 ft | 97 kts | 256° |
| 2026-04-26 10:49 | 51.71328 | 46.11395 | 971 ft | 96 kts | 257° |
| 2026-04-26 10:50 | 51.71330 | 46.10324 | 975 ft | 97 kts | 257° |
| 2026-04-26 10:50 | 51.71375 | 46.09271 | 1143 ft | 96 kts | 268° |
| 2026-04-26 10:50 | 51.71756 | 46.08328 | 1300 ft | 105 kts | 312° |
| 2026-04-26 10:50 | 51.72443 | 46.07916 | 1478 ft | 110 kts | 353° |
| 2026-04-26 10:51 | 51.73224 | 46.07957 | 1672 ft | 112 kts | 359° |
| 2026-04-26 10:51 | 51.74779 | 46.08069 | 1998 ft | 118 kts | 358° |
| 2026-04-26 10:51 | 51.75633 | 46.08149 | 1999 ft | 127 kts | 356° |
| 2026-04-26 10:52 | 51.76517 | 46.08218 | 1982 ft | 126 kts | 354° |
| 2026-04-26 10:52 | 51.77383 | 46.08030 | 1965 ft | 125 kts | 339° |
| 2026-04-26 10:52 | 51.78229 | 46.08301 | 1990 ft | 130 kts | 37° |
| 2026-04-26 10:52 | 51.78694 | 46.09471 | 2002 ft | 121 kts | 90° |
| 2026-04-26 10:53 | 51.78690 | 46.10783 | 1991 ft | 116 kts | 103° |
| 2026-04-26 10:53 | 51.78731 | 46.12075 | 1990 ft | 115 kts | 96° |
| 2026-04-26 10:53 | 51.78759 | 46.13353 | 1959 ft | 113 kts | 102° |
| 2026-04-26 10:54 | 51.78765 | 46.15881 | 1969 ft | 107 kts | 101° |
| 2026-04-26 10:54 | 51.78751 | 46.17097 | 1961 ft | 104 kts | 106° |
| 2026-04-26 10:54 | 51.78707 | 46.18225 | 1976 ft | 100 kts | 109° |
| 2026-04-26 10:54 | 51.78653 | 46.19372 | 1957 ft | 106 kts | 107° |
| 2026-04-26 10:55 | 51.78591 | 46.20616 | 1949 ft | 111 kts | 108° |
| 2026-04-26 10:55 | 51.78443 | 46.21769 | 1945 ft | 99 kts | 126° |
| 2026-04-26 10:55 | 51.78185 | 46.22775 | 1942 ft | 95 kts | 126° |
| 2026-04-26 10:55 | 51.77938 | 46.23749 | 1944 ft | 92 kts | 126° |
| 2026-04-26 10:56 | 51.77563 | 46.24372 | 1937 ft | 70 kts | 192° |
| 2026-04-26 10:56 | 51.77098 | 46.24230 | 1948 ft | 70 kts | 188° |
| 2026-04-26 10:56 | 51.76610 | 46.24228 | 1948 ft | 71 kts | 186° |
| 2026-04-26 10:56 | 51.76123 | 46.24245 | 1949 ft | 71 kts | 186° |
| 2026-04-26 10:57 | 51.75633 | 46.24264 | 1946 ft | 70 kts | 187° |
| 2026-04-26 10:57 | 51.75149 | 46.24284 | 1945 ft | 70 kts | 187° |
| 2026-04-26 10:57 | 51.74665 | 46.24302 | 1946 ft | 70 kts | 187° |
| 2026-04-26 10:57 | 51.74177 | 46.24320 | 1947 ft | 71 kts | 187° |
| 2026-04-26 10:58 | 51.73685 | 46.24337 | 1952 ft | 71 kts | 186° |
| 2026-04-26 10:58 | 51.73190 | 46.24349 | 1956 ft | 71 kts | 186° |
| 2026-04-26 10:58 | 51.72696 | 46.24357 | 1957 ft | 71 kts | 186° |
| 2026-04-26 10:58 | 51.72206 | 46.24333 | 1957 ft | 70 kts | 190° |
| 2026-04-26 10:59 | 51.71727 | 46.24280 | 1956 ft | 68 kts | 189° |
| 2026-04-26 10:59 | 51.71260 | 46.24216 | 1952 ft | 67 kts | 185° |
| 2026-04-26 10:59 | 51.70814 | 46.24134 | 1950 ft | 64 kts | 195° |
| 2026-04-26 10:59 | 51.70382 | 46.24005 | 1947 ft | 63 kts | 195° |
| 2026-04-26 11:00 | 51.69956 | 46.23883 | 1941 ft | 62 kts | 194° |
| 2026-04-26 11:00 | 51.69529 | 46.23765 | 1950 ft | 64 kts | 194° |
| 2026-04-26 11:00 | 51.69079 | 46.23642 | 1942 ft | 66 kts | 194° |
| 2026-04-26 11:00 | 51.68632 | 46.23529 | 1944 ft | 64 kts | 194° |
| 2026-04-26 11:01 | 51.68195 | 46.23420 | 1946 ft | 63 kts | 194° |
| 2026-04-26 11:01 | 51.67702 | 46.23288 | 1960 ft | 81 kts | 194° |
| 2026-04-26 11:01 | 51.67100 | 46.23104 | 1961 ft | 93 kts | 194° |
| 2026-04-26 11:01 | 51.66454 | 46.22905 | 1959 ft | 96 kts | 194° |
| 2026-04-26 11:02 | 51.65811 | 46.22713 | 1958 ft | 94 kts | 194° |
| 2026-04-26 11:02 | 51.65181 | 46.22509 | 1958 ft | 91 kts | 197° |
| 2026-04-26 11:02 | 51.64566 | 46.22276 | 1957 ft | 91 kts | 196° |
| 2026-04-26 11:02 | 51.63955 | 46.22026 | 1951 ft | 90 kts | 197° |
| 2026-04-26 11:03 | 51.63365 | 46.21740 | 1949 ft | 88 kts | 199° |
| 2026-04-26 11:03 | 51.62780 | 46.21458 | 1949 ft | 88 kts | 199° |
| 2026-04-26 11:03 | 51.62194 | 46.21175 | 1957 ft | 89 kts | 198° |
| 2026-04-26 11:03 | 51.61590 | 46.20885 | 1956 ft | 91 kts | 199° |
| 2026-04-26 11:04 | 51.60986 | 46.20588 | 1961 ft | 90 kts | 198° |
| 2026-04-26 11:04 | 51.60382 | 46.20291 | 1959 ft | 90 kts | 199° |
| 2026-04-26 11:04 | 51.59797 | 46.19967 | 2005 ft | 85 kts | 207° |
| 2026-04-26 11:04 | 51.59524 | 46.19136 | 1916 ft | 95 kts | 261° |
| 2026-04-26 11:05 | 51.59714 | 46.18082 | 1759 ft | 99 kts | 278° |
| 2026-04-26 11:05 | 51.59985 | 46.17092 | 1700 ft | 94 kts | 282° |
| 2026-04-26 11:05 | 51.60277 | 46.16148 | 1592 ft | 92 kts | 281° |
| 2026-04-26 11:05 | 51.60555 | 46.15257 | 1527 ft | 91 kts | 284° |
| 2026-04-26 11:06 | 51.60837 | 46.14362 | 1449 ft | 87 kts | 282° |
| 2026-04-26 11:06 | 51.61093 | 46.13450 | 1463 ft | 90 kts | 281° |
| 2026-04-26 11:06 | 51.61452 | 46.12602 | 1507 ft | 104 kts | 321° |
| 2026-04-26 11:06 | 51.62215 | 46.12522 | 1495 ft | 110 kts | 356° |
| 2026-04-26 11:07 | 51.62941 | 46.12480 | 1448 ft | 100 kts | 348° |
| 2026-04-26 11:07 | 51.63623 | 46.12385 | 1266 ft | 97 kts | 352° |
| 2026-04-26 11:07 | 51.64303 | 46.12323 | 1071 ft | 97 kts | 337° |
| 2026-04-26 11:07 | 51.64643 | 46.11657 | 896 ft | 72 kts | 255° |
| 2026-04-26 11:08 | 51.64617 | 46.10931 | 805 ft | 61 kts | 252° |
| 2026-04-26 11:08 | 51.64605 | 46.10221 | 738 ft | 66 kts | 253° |
| 2026-04-26 11:08 | 51.64602 | 46.09487 | 731 ft | 66 kts | 251° |
| 2026-04-26 11:08 | 51.64555 | 46.08733 | 661 ft | 71 kts | 253° |
| 2026-04-26 11:09 | 51.64545 | 46.07948 | 615 ft | 71 kts | 253° |
| 2026-04-26 11:09 | 51.64518 | 46.07160 | 555 ft | 72 kts | 253° |
| 2026-04-26 11:09 | 51.64506 | 46.06369 | 540 ft | 68 kts | 254° |
| 2026-04-26 11:09 | 51.64499 | 46.05623 | 572 ft | 70 kts | 252° |
| 2026-04-26 11:10 | 51.64530 | 46.04819 | 793 ft | 68 kts | 250° |
| 2026-04-26 11:10 | 51.64526 | 46.04051 | 1011 ft | 68 kts | 255° |
| 2026-04-26 11:10 | 51.64508 | 46.03279 | 1216 ft | 71 kts | 260° |
| 2026-04-26 11:10 | 51.64514 | 46.02490 | 1374 ft | 74 kts | 258° |
| 2026-04-26 11:11 | 51.64506 | 46.01593 | 1449 ft | 85 kts | 257° |
| 2026-04-26 11:11 | 51.64458 | 46.00567 | 1456 ft | 100 kts | 257° |
| 2026-04-26 11:11 | 51.64514 | 45.99366 | 1464 ft | 111 kts | 263° |
| 2026-04-26 11:11 | 51.64531 | 45.98137 | 1449 ft | 107 kts | 262° |
| 2026-04-26 11:12 | 51.64554 | 45.96996 | 1442 ft | 99 kts | 263° |
| 2026-04-26 11:12 | 51.64592 | 45.95900 | 1444 ft | 97 kts | 262° |
| 2026-04-26 11:12 | 51.64326 | 45.95118 | 1438 ft | 80 kts | 194° |
| 2026-04-26 11:12 | 51.63779 | 45.95124 | 1436 ft | 76 kts | 189° |
| 2026-04-26 11:13 | 51.63255 | 45.95063 | 1442 ft | 79 kts | 187° |
| 2026-04-26 11:13 | 51.62740 | 45.95307 | 1439 ft | 91 kts | 134° |
| 2026-04-26 11:13 | 51.62545 | 45.96335 | 1446 ft | 97 kts | 123° |
| 2026-04-26 11:13 | 51.62423 | 45.97469 | 1457 ft | 105 kts | 114° |
| 2026-04-26 11:14 | 51.62362 | 45.98725 | 1451 ft | 117 kts | 98° |
| 2026-04-26 11:14 | 51.62329 | 46.00037 | 1451 ft | 120 kts | 103° |
| 2026-04-26 11:14 | 51.62271 | 46.01382 | 1452 ft | 121 kts | 104° |
| 2026-04-26 11:14 | 51.62247 | 46.02699 | 1452 ft | 115 kts | 100° |
| 2026-04-26 11:15 | 51.62200 | 46.03984 | 1456 ft | 117 kts | 104° |
| 2026-04-26 11:15 | 51.62148 | 46.05297 | 1443 ft | 116 kts | 102° |
| 2026-04-26 11:15 | 51.62116 | 46.06578 | 1447 ft | 115 kts | 102° |
| 2026-04-26 11:15 | 51.62081 | 46.07881 | 1447 ft | 119 kts | 103° |
| 2026-04-26 11:16 | 51.62045 | 46.09185 | 1442 ft | 115 kts | 104° |
| 2026-04-26 11:16 | 51.62014 | 46.10427 | 1440 ft | 108 kts | 103° |
| 2026-04-26 11:16 | 51.61980 | 46.11591 | 1446 ft | 102 kts | 102° |
| 2026-04-26 11:16 | 51.61946 | 46.12716 | 1440 ft | 100 kts | 103° |
| 2026-04-26 11:17 | 51.61940 | 46.13801 | 1438 ft | 95 kts | 103° |
| 2026-04-26 11:17 | 51.61950 | 46.14847 | 1439 ft | 92 kts | 106° |
| 2026-04-26 11:17 | 51.61918 | 46.15846 | 1440 ft | 89 kts | 108° |
| 2026-04-26 11:17 | 51.61880 | 46.16833 | 1442 ft | 88 kts | 108° |
| 2026-04-26 11:18 | 51.61865 | 46.17818 | 1438 ft | 92 kts | 91° |
| 2026-04-26 11:18 | 51.62373 | 46.18494 | 1447 ft | 104 kts | 13° |
| 2026-04-26 11:18 | 51.63089 | 46.18558 | 1459 ft | 105 kts | 351° |
| 2026-04-26 11:18 | 51.63819 | 46.18520 | 1524 ft | 104 kts | 351° |
| 2026-04-26 11:19 | 51.64416 | 46.18093 | 1510 ft | 87 kts | 296° |
| 2026-04-26 11:19 | 51.64664 | 46.17315 | 1468 ft | 72 kts | 271° |
| 2026-04-26 11:19 | 51.64784 | 46.16580 | 1469 ft | 63 kts | 263° |
| 2026-04-26 11:19 | 51.64823 | 46.15888 | 1460 ft | 63 kts | 254° |
| 2026-04-26 11:20 | 51.64813 | 46.15158 | 1484 ft | 67 kts | 254° |
| 2026-04-26 11:20 | 51.64814 | 46.14656 | 1508 ft | 67 kts | 255° |
| 2026-04-26 11:20 | 51.64796 | 46.13652 | 1400 ft | 68 kts | 256° |
| 2026-04-26 11:20 | 51.64767 | 46.12903 | 1305 ft | 66 kts | 248° |
| 2026-04-26 11:21 | 51.64686 | 46.12156 | 1220 ft | 71 kts | 249° |
| 2026-04-26 11:21 | 51.64620 | 46.11335 | 1125 ft | 77 kts | 253° |
| 2026-04-26 11:21 | 51.64623 | 46.10460 | 1030 ft | 77 kts | 255° |
| 2026-04-26 11:21 | 51.64595 | 46.09610 | 950 ft | 77 kts | 253° |
| 2026-04-26 11:22 | 51.64571 | 46.08772 | 741 ft | 73 kts | 252° |
| 2026-04-26 11:22 | 51.64539 | 46.07966 | 574 ft | 73 kts | 255° |
| 2026-04-26 11:22 | 51.64519 | 46.07185 | 464 ft | 62 kts | 255° |
| 2026-04-26 11:22 | 51.64492 | 46.06518 | 510 ft | 66 kts | 260° |
| 2026-04-26 11:23 | 51.64511 | 46.05773 | 724 ft | 66 kts | 259° |
| 2026-04-26 11:23 | 51.64522 | 46.05043 | 943 ft | 65 kts | 257° |
| 2026-04-26 11:23 | 51.64540 | 46.04292 | 1078 ft | 70 kts | 258° |
| 2026-04-26 11:23 | 51.64554 | 46.03509 | 1226 ft | 70 kts | 257° |
| 2026-04-26 11:24 | 51.64540 | 46.02746 | 1358 ft | 67 kts | 260° |
| 2026-04-26 11:24 | 51.64559 | 46.01995 | 1530 ft | 67 kts | 258° |
| 2026-04-26 11:24 | 51.64367 | 46.01400 | 1542 ft | 68 kts | 199° |
| 2026-04-26 11:24 | 51.63871 | 46.01388 | 1553 ft | 74 kts | 187° |
| 2026-04-26 11:25 | 51.63322 | 46.01361 | 1473 ft | 81 kts | 185° |
| 2026-04-26 11:25 | 51.62764 | 46.01402 | 1424 ft | 83 kts | 168° |
| 2026-04-26 11:25 | 51.62468 | 46.02239 | 1496 ft | 97 kts | 108° |
| 2026-04-26 11:25 | 51.62427 | 46.03400 | 1510 ft | 110 kts | 102° |
| 2026-04-26 11:26 | 51.62374 | 46.04641 | 1558 ft | 114 kts | 109° |
| 2026-04-26 11:26 | 51.62229 | 46.05922 | 1512 ft | 116 kts | 113° |
| 2026-04-26 11:26 | 51.62027 | 46.07185 | 1470 ft | 118 kts | 115° |
| 2026-04-26 11:26 | 51.61816 | 46.08439 | 1483 ft | 113 kts | 116° |
| 2026-04-26 11:27 | 51.61677 | 46.09646 | 1507 ft | 109 kts | 107° |
| 2026-04-26 11:27 | 51.61666 | 46.10883 | 1494 ft | 108 kts | 96° |
| 2026-04-26 11:27 | 51.61640 | 46.12048 | 1436 ft | 103 kts | 105° |
| 2026-04-26 11:27 | 51.61616 | 46.13128 | 1488 ft | 94 kts | 108° |
| 2026-04-26 11:28 | 51.61583 | 46.14196 | 1489 ft | 96 kts | 105° |
| 2026-04-26 11:28 | 51.61542 | 46.15299 | 1462 ft | 101 kts | 108° |
| 2026-04-26 11:28 | 51.61634 | 46.16453 | 1426 ft | 117 kts | 62° |
| 2026-04-26 11:28 | 51.62339 | 46.16975 | 1454 ft | 111 kts | 358° |
| 2026-04-26 11:29 | 51.63081 | 46.16999 | 1412 ft | 103 kts | 351° |
| 2026-04-26 11:29 | 51.63784 | 46.16976 | 1376 ft | 103 kts | 347° |
| 2026-04-26 11:29 | 51.64494 | 46.16766 | 1321 ft | 103 kts | 337° |
| 2026-04-26 11:29 | 51.65087 | 46.16330 | 1370 ft | 84 kts | 296° |
| 2026-04-26 11:30 | 51.65113 | 46.15497 | 1284 ft | 78 kts | 246° |
| 2026-04-26 11:30 | 51.64999 | 46.14965 | 1317 ft | 72 kts | 242° |
| 2026-04-26 11:30 | 51.64908 | 46.13957 | 1335 ft | 62 kts | 250° |
| 2026-04-26 11:30 | 51.64827 | 46.13283 | 1250 ft | 61 kts | 248° |
| 2026-04-26 11:31 | 51.64744 | 46.12591 | 1129 ft | 64 kts | 246° |
| 2026-04-26 11:31 | 51.64735 | 46.11883 | 1054 ft | 65 kts | 257° |
| 2026-04-26 11:31 | 51.64724 | 46.11115 | 914 ft | 72 kts | 253° |
| 2026-04-26 11:31 | 51.64675 | 46.10368 | 840 ft | 64 kts | 244° |
| 2026-04-26 11:32 | 51.64662 | 46.09637 | 822 ft | 66 kts | 254° |
| 2026-04-26 11:32 | 51.64657 | 46.08908 | 747 ft | 66 kts | 251° |
| 2026-04-26 11:32 | 51.64555 | 46.08161 | 638 ft | 73 kts | 251° |
| 2026-04-26 11:32 | 51.64527 | 46.07351 | 472 ft | 68 kts | 258° |
| 2026-04-26 11:33 | 51.64499 | 46.06686 | 467 ft | 61 kts | 270° |
| 2026-04-26 11:33 | 51.64527 | 46.05942 | 623 ft | 71 kts | 255° |
| 2026-04-26 11:33 | 51.64514 | 46.05186 | 860 ft | 65 kts | 251° |
| 2026-04-26 11:33 | 51.64531 | 46.04431 | 1073 ft | 70 kts | 256° |
| 2026-04-26 11:34 | 51.64552 | 46.03671 | 1355 ft | 66 kts | 259° |
| 2026-04-26 11:34 | 51.64568 | 46.02904 | 1529 ft | 75 kts | 257° |
| 2026-04-26 11:34 | 51.64601 | 46.02051 | 1801 ft | 77 kts | 259° |
| 2026-04-26 11:34 | 51.64633 | 46.01467 | 1942 ft | 81 kts | 263° |
| 2026-04-26 11:35 | 51.64700 | 46.00453 | 1962 ft | 108 kts | 276° |
| 2026-04-26 11:35 | 51.64926 | 45.99205 | 1970 ft | 120 kts | 273° |
| 2026-04-26 11:35 | 51.65146 | 45.97913 | 1955 ft | 115 kts | 275° |
| 2026-04-26 11:35 | 51.65358 | 45.96719 | 1942 ft | 106 kts | 275° |
| 2026-04-26 11:36 | 51.65565 | 45.95595 | 1932 ft | 104 kts | 274° |
| 2026-04-26 11:36 | 51.65768 | 45.94486 | 1941 ft | 104 kts | 274° |
| 2026-04-26 11:36 | 51.66277 | 45.93574 | 1925 ft | 120 kts | 318° |
| 2026-04-26 11:36 | 51.66985 | 45.92870 | 1921 ft | 117 kts | 316° |
| 2026-04-26 11:37 | 51.67663 | 45.92195 | 1917 ft | 113 kts | 316° |
| 2026-04-26 11:37 | 51.68324 | 45.91543 | 1913 ft | 112 kts | 316° |
| 2026-04-26 11:37 | 51.69029 | 45.90989 | 1916 ft | 116 kts | 334° |
| 2026-04-26 11:37 | 51.69830 | 45.90735 | 1910 ft | 120 kts | 354° |
| 2026-04-26 11:38 | 51.70488 | 45.91477 | 1912 ft | 120 kts | 76° |
| 2026-04-26 11:38 | 51.70521 | 45.92696 | 1924 ft | 109 kts | 107° |
| 2026-04-26 11:38 | 51.70542 | 45.93950 | 1948 ft | 112 kts | 100° |
| 2026-04-26 11:38 | 51.70572 | 45.95227 | 1957 ft | 116 kts | 99° |
| 2026-04-26 11:39 | 51.70621 | 45.96542 | 1952 ft | 118 kts | 93° |
| 2026-04-26 11:39 | 51.70795 | 45.97833 | 1948 ft | 125 kts | 65° |
| 2026-04-26 11:39 | 51.71294 | 45.98971 | 1940 ft | 121 kts | 61° |
| 2026-04-26 11:39 | 51.71820 | 45.99989 | 1940 ft | 115 kts | 48° |
| 2026-04-26 11:40 | 51.72426 | 46.00795 | 1942 ft | 111 kts | 40° |
| 2026-04-26 11:40 | 51.73044 | 46.01563 | 1940 ft | 115 kts | 39° |
| 2026-04-26 11:40 | 51.73674 | 46.02344 | 1950 ft | 115 kts | 40° |
| 2026-04-26 11:40 | 51.74317 | 46.03158 | 1953 ft | 118 kts | 39° |
| 2026-04-26 11:41 | 51.74973 | 46.03990 | 1956 ft | 122 kts | 39° |
| 2026-04-26 11:42 | 51.79128 | 46.10074 | 1939 ft | 107 kts | 73° |
| 2026-04-26 11:43 | 51.79402 | 46.11206 | 1949 ft | 110 kts | 77° |
| 2026-04-26 11:43 | 51.79572 | 46.12388 | 1842 ft | 106 kts | 103° |
| 2026-04-26 11:43 | 51.79549 | 46.13525 | 1781 ft | 96 kts | 104° |
| 2026-04-26 11:43 | 51.79533 | 46.14529 | 1758 ft | 85 kts | 107° |
| 2026-04-26 11:44 | 51.79511 | 46.15494 | 1761 ft | 87 kts | 110° |
| 2026-04-26 11:44 | 51.79456 | 46.16470 | 1770 ft | 90 kts | 110° |
| 2026-04-26 11:44 | 51.79387 | 46.17514 | 1780 ft | 97 kts | 109° |
| 2026-04-26 11:44 | 51.79293 | 46.18602 | 1775 ft | 96 kts | 110° |
| 2026-04-26 11:45 | 51.79195 | 46.19659 | 1778 ft | 95 kts | 110° |
| 2026-04-26 11:45 | 51.79099 | 46.20739 | 1779 ft | 100 kts | 110° |
| 2026-04-26 11:45 | 51.78847 | 46.21686 | 1773 ft | 85 kts | 155° |
| 2026-04-26 11:45 | 51.78348 | 46.22119 | 1799 ft | 77 kts | 169° |
| 2026-04-26 11:46 | 51.77855 | 46.22319 | 1861 ft | 71 kts | 175° |
| 2026-04-26 11:46 | 51.77375 | 46.22479 | 1854 ft | 75 kts | 176° |
| 2026-04-26 11:46 | 51.76849 | 46.22808 | 1792 ft | 89 kts | 150° |
| 2026-04-26 11:46 | 51.76412 | 46.23497 | 1823 ft | 87 kts | 144° |
| 2026-04-26 11:47 | 51.76017 | 46.24212 | 1800 ft | 84 kts | 144° |
| 2026-04-26 11:47 | 51.75647 | 46.24898 | 1769 ft | 80 kts | 143° |
| 2026-04-26 11:47 | 51.75257 | 46.25417 | 1789 ft | 67 kts | 164° |
| 2026-04-26 11:47 | 51.74831 | 46.25635 | 1760 ft | 63 kts | 176° |
| 2026-04-26 11:48 | 51.74411 | 46.25839 | 1767 ft | 60 kts | 168° |
| 2026-04-26 11:48 | 51.73999 | 46.25978 | 1695 ft | 65 kts | 181° |
| 2026-04-26 11:48 | 51.73545 | 46.26050 | 1635 ft | 67 kts | 174° |
| 2026-04-26 11:48 | 51.73094 | 46.26187 | 1540 ft | 69 kts | 179° |
| 2026-04-26 11:49 | 51.72669 | 46.26236 | 1626 ft | 56 kts | 176° |
| 2026-04-26 11:49 | 51.72263 | 46.26258 | 1512 ft | 59 kts | 197° |
| 2026-04-26 11:49 | 51.71919 | 46.25812 | 1356 ft | 70 kts | 221° |
| 2026-04-26 11:49 | 51.71597 | 46.25211 | 1242 ft | 72 kts | 223° |
| 2026-04-26 11:50 | 51.71267 | 46.24571 | 1097 ft | 74 kts | 230° |
| 2026-04-26 11:50 | 51.71155 | 46.23736 | 884 ft | 80 kts | 254° |
| 2026-04-26 11:50 | 51.71195 | 46.22865 | 677 ft | 75 kts | 253° |
| 2026-04-26 11:50 | 51.71172 | 46.22041 | 547 ft | 76 kts | 258° |
| 2026-04-26 11:51 | 51.71189 | 46.21165 | 360 ft | 78 kts | 256° |
| 2026-04-26 11:51 | 51.71189 | 46.20343 | 264 ft | 74 kts | 265° |
| 2026-04-26 11:51 | 51.71212 | 46.19460 | 174 ft | 78 kts | 263° |
| 2026-04-26 11:51 | 51.71228 | 46.18653 | 109 ft | 64 kts | 264° |
| 2026-04-26 11:52 | 51.71239 | 46.18025 | 102 ft | 49 kts | 272° |
| 2026-04-26 11:52 | 51.71255 | 46.17529 | 102 ft | 40 kts | 267° |
| 2026-04-26 11:52 | 51.71264 | 46.17123 | 99 ft | 34 kts | 270° |
| 2026-04-26 11:52 | 51.71273 | 46.16774 | 97 ft | 29 kts | 269° |
| 2026-04-26 11:53 | 51.71320 | 46.16565 | 96 ft | 18 kts | 349° |
| 2026-04-26 11:53 | 51.71399 | 46.16567 | 97 ft | 0 kts | 4° |
| 2026-04-26 11:54 | 51.71468 | 46.16571 | 97 ft | 21 kts | 2° |
| 2026-04-26 11:54 | 51.71534 | 46.16667 | 98 ft | 14 kts | 93° |
| 2026-04-26 11:55 | 51.71539 | 46.16806 | 98 ft | 11 kts | 49° |
| 2026-04-26 11:55 | 51.71575 | 46.16867 | 99 ft | 6 kts | 46° |
| 2026-04-26 11:55 | 51.71595 | 46.16906 | 99 ft | 0 kts | 46° |